Time;durP1;ratioP1;P1;durP2;ratioP2;P2;SDS_P1;SDS_P2;PMS_P1;PMS_P2;Temp;Humidity;BMP_temperature;BMP_pressure;BME280_temperature;BME280_humidity;BME280_pressure;Samples;Min_cycle;Max_cycle;Signal;HPM_P1;HPM_P2
2021/08/05 05:53:29;;;;;;;14.55;13.02;;;;;;;;;;10646412;27;20406;-82
2021/08/05 05:58:30;;;;;;;;;;;;;;;;;;10639866;27;20027;-82
2021/08/05 06:03:31;;;;;;;7.90;6.90;;;;;;;;;;10642633;28;19904;-82
2021/08/05 06:08:38;;;;;;;;;;;;;;;;;;10641427;27;20102;-83
2021/08/05 06:13:40;;;;;;;8.73;7.82;;;;;;;;;;10630279;28;19911;-87
2021/08/05 06:18:41;;;;;;;13.68;11.38;;;;;;;;;;10628166;27;20055;-85
2021/08/05 06:23:43;;;;;;;11.00;9.95;;;;;;;;;;10622160;27;20020;-87
2021/08/05 06:28:44;;;;;;;10.52;9.45;;;;;;;;;;10622201;27;20023;-87
2021/08/05 06:33:47;;;;;;;17.92;16.02;;;;;;;;;;10621201;28;20033;-87
2021/08/05 06:38:50;;;;;;;23.42;21.00;;;;;;;;;;10619736;27;20076;-86
2021/08/05 06:43:56;;;;;;;9.30;8.25;;;;;;;;;;10627895;27;20134;-87
2021/08/05 06:48:57;;;;;;;11.15;10.07;;;;;;;;;;10623128;27;20031;-87
2021/08/05 06:53:59;;;;;;;19.30;17.15;;;;;;;;;;10617027;27;20157;-87
2021/08/05 06:59:01;;;;;;;8.63;7.25;;;;;;;;;;10623235;27;20027;-87
2021/08/05 07:04:02;;;;;;;13.20;10.98;;;;;;;;;;10594968;27;20103;-87
2021/08/05 07:09:03;;;;;;;10.88;9.73;;;;;;;;;;10591928;28;20028;-87
2021/08/05 07:14:05;;;;;;;12.50;11.10;;;;;;;;;;10591968;28;20054;-87
2021/08/05 07:19:06;;;;;;;11.35;9.57;;;;;;;;;;10597253;28;20043;-86
2021/08/05 07:24:07;;;;;;;10.85;9.38;;;;;;;;;;10634858;28;20047;-85
2021/08/05 07:29:08;;;;;;;13.95;11.30;;;;;;;;;;10626869;28;20068;-86
2021/08/05 07:34:09;;;;;;;21.83;19.48;;;;;;;;;;10596500;28;20023;-86
2021/08/05 07:39:11;;;;;;;11.90;10.27;;;;;;;;;;10596530;28;20028;-86
2021/08/05 07:44:12;;;;;;;28.40;23.33;;;;;;;;;;10593750;28;20389;-87
2021/08/05 07:49:13;;;;;;;21.35;18.70;;;;;;;;;;10590208;28;20032;-86
2021/08/05 07:54:14;;;;;;;20.88;18.30;;;;;;;;;;10591284;28;20024;-86
2021/08/05 07:59:15;;;;;;;15.93;12.32;;;;;;;;;;10590569;28;20126;-86
2021/08/05 08:04:16;;;;;;;22.67;19.95;;;;;;;;;;10586420;27;20486;-87
2021/08/05 08:09:17;;;;;;;16.52;14.80;;;;;;;;;;10585603;28;20027;-84
2021/08/05 08:14:18;;;;;;;19.75;17.75;;;;;;;;;;10600062;28;20034;-84
2021/08/05 08:19:19;;;;;;;14.82;13.35;;;;;;;;;;10602027;28;20054;-84
2021/08/05 08:24:23;;;;;;;12.20;10.93;;;;;;;;;;10598566;28;20051;-84
2021/08/05 08:29:25;;;;;;;13.68;12.25;;;;;;;;;;10601481;28;20023;-83
2021/08/05 08:34:26;;;;;;;10.48;8.85;;;;;;;;;;10595156;28;20469;-83
2021/08/05 08:39:27;;;;;;;14.77;13.30;;;;;;;;;;10596809;28;20016;-82
2021/08/05 08:44:28;;;;;;;16.95;15.07;;;;;;;;;;10596982;28;20450;-81
2021/08/05 08:49:31;;;;;;;9.98;8.98;;;;;;;;;;10596906;28;20031;-82
2021/08/05 08:54:33;;;;;;;21.85;19.50;;;;;;;;;;10604623;28;20020;-81
2021/08/05 08:59:34;;;;;;;14.20;12.05;;;;;;;;;;10601036;28;20032;-82
2021/08/05 09:04:36;;;;;;;10.93;9.80;;;;;;;;;;10599508;28;20047;-82
2021/08/05 09:09:37;;;;;;;15.27;13.60;;;;;;;;;;10601725;28;20027;-82
2021/08/05 09:14:41;;;;;;;17.25;15.45;;;;;;;;;;10599010;28;20020;-81
2021/08/05 09:19:42;;;;;;;14.23;12.75;;;;;;;;;;10594385;28;20023;-80
2021/08/05 09:24:43;;;;;;;12.85;11.52;;;;;;;;;;10530268;22;20071;-84
2021/08/05 09:29:47;;;;;;;11.40;10.15;;;;;;;;;;10464348;28;20037;-83
2021/08/05 09:34:48;;;;;;;14.52;13.02;;;;;;;;;;10464473;28;20558;-83
2021/08/05 09:39:49;;;;;;;8.88;7.97;;;;;;;;;;10449056;28;20498;-84
2021/08/05 09:44:52;;;;;;;16.88;14.82;;;;;;;;;;10467183;28;20466;-85
2021/08/05 09:49:58;;;;;;;14.88;13.38;;;;;;;;;;10503486;28;20017;-81
2021/08/05 09:55:00;;;;;;;10.35;9.35;;;;;;;;;;10484891;28;20009;-83
2021/08/05 10:00:10;;;;;;;15.57;13.98;;;;;;;;;;10477300;28;20044;-83
2021/08/05 10:05:14;;;;;;;12.07;10.98;;;;;;;;;;10447782;28;20021;-82
2021/08/05 10:10:16;;;;;;;10.88;9.88;;;;;;;;;;10454148;28;20045;-82
2021/08/05 10:15:18;;;;;;;10.27;7.45;;;;;;;;;;10469121;28;20433;-82
2021/08/05 10:20:21;;;;;;;9.20;8.30;;;;;;;;;;10463889;28;20052;-82
2021/08/05 10:25:25;;;;;;;8.93;7.55;;;;;;;;;;10468109;28;20444;-82
2021/08/05 10:30:26;;;;;;;6.97;6.28;;;;;;;;;;10449592;28;20441;-82
2021/08/05 10:35:27;;;;;;;11.15;10.05;;;;;;;;;;10452869;28;20043;-82
2021/08/05 10:40:28;;;;;;;9.48;8.57;;;;;;;;;;10458153;28;20064;-82
2021/08/05 10:45:29;;;;;;;10.88;9.88;;;;;;;;;;10455922;28;20092;-81
2021/08/05 10:50:31;;;;;;;12.85;11.65;;;;;;;;;;10459149;28;20091;-83
2021/08/05 10:55:34;;;;;;;10.70;9.75;;;;;;;;;;10457760;28;20364;-82
2021/08/05 11:00:50;;;;;;;8.52;7.75;;;;;;;;;;10456218;28;20067;-82
2021/08/05 11:05:52;;;;;;;9.65;8.65;;;;;;;;;;10455971;28;20031;-82
2021/08/05 11:11:12;;;;;;;10.48;9.15;;;;;;;;;;10452471;28;20029;-82
2021/08/05 11:16:13;;;;;;;11.00;9.40;;;;;;;;;;10448224;28;20025;-82
2021/08/05 11:21:17;;;;;;;13.98;12.50;;;;;;;;;;10461881;28;20037;-81
2021/08/05 11:26:18;;;;;;;8.88;7.95;;;;;;;;;;10453533;28;20033;-82
2021/08/05 11:31:26;;;;;;;15.60;14.10;;;;;;;;;;10459042;28;20071;-82
2021/08/05 11:36:34;;;;;;;13.40;12.00;;;;;;;;;;10461178;28;20146;-81
2021/08/05 11:41:41;;;;;;;11.13;10.13;;;;;;;;;;10458900;28;20423;-83
2021/08/05 11:46:42;;;;;;;26.60;19.48;;;;;;;;;;10453050;28;20017;-83
2021/08/05 11:51:43;;;;;;;12.32;11.02;;;;;;;;;;10450872;28;20493;-84
2021/08/05 11:56:57;;;;;;;13.48;10.35;;;;;;;;;;10470520;28;20429;-80
2021/08/05 12:02:04;;;;;;;11.50;10.32;;;;;;;;;;10452058;28;20387;-85
2021/08/05 12:07:15;;;;;;;11.63;10.43;;;;;;;;;;10453441;28;20037;-85
2021/08/05 12:12:16;;;;;;;10.30;9.30;;;;;;;;;;10454375;28;20029;-84
2021/08/05 12:17:29;;;;;;;10.75;9.45;;;;;;;;;;10453702;28;20056;-85
2021/08/05 12:22:40;;;;;;;9.88;8.88;;;;;;;;;;10474308;28;20125;-85
2021/08/05 12:27:41;;;;;;;9.68;8.77;;;;;;;;;;10459576;28;20025;-85
2021/08/05 12:33:22;;;;;;;9.70;8.80;;;;;;;;;;10454107;28;20115;-85
2021/08/05 12:38:23;;;;;;;11.00;9.27;;;;;;;;;;10337724;28;20026;-85
2021/08/05 12:43:34;;;;;;;11.20;10.05;;;;;;;;;;10437358;28;20052;-86
2021/08/05 12:49:00;;;;;;;9.30;8.45;;;;;;;;;;10443603;28;20029;-86
2021/08/05 12:54:19;;;;;;;12.70;11.50;;;;;;;;;;10459130;28;20060;-86
2021/08/05 12:59:26;;;;;;;11.43;10.43;;;;;;;;;;10440770;28;20040;-86
2021/08/05 13:04:28;;;;;;;12.10;10.88;;;;;;;;;;10454804;28;20055;-84
2021/08/05 13:09:33;;;;;;;7.95;7.25;;;;;;;;;;10457414;28;20488;-84
2021/08/05 13:14:43;;;;;;;9.32;8.48;;;;;;;;;;10458833;28;20021;-83
2021/08/05 13:19:52;;;;;;;18.60;16.80;;;;;;;;;;10454906;28;20092;-83
2021/08/05 13:25:27;;;;;;;15.30;13.80;;;;;;;;;;10452079;28;20115;-85
2021/08/05 13:36:14;;;;;;;12.05;10.82;;;;;;;;;;10466492;28;20025;-85
2021/08/05 13:41:16;;;;;;;9.70;8.80;;;;;;;;;;10440748;28;20055;-85
2021/08/05 13:46:17;;;;;;;10.73;9.73;;;;;;;;;;10453258;28;20070;-84
2021/08/05 14:02:40;;;;;;;9.80;8.68;;;;;;;;;;10482578;28;20033;-84
2021/08/05 14:07:42;;;;;;;11.25;10.20;;;;;;;;;;10454174;28;20086;-84
2021/08/05 14:12:43;;;;;;;12.75;11.65;;;;;;;;;;10456570;28;20479;-82
2021/08/05 14:17:44;;;;;;;9.55;8.48;;;;;;;;;;10460677;28;20025;-82
2021/08/05 14:22:46;;;;;;;13.80;12.40;;;;;;;;;;10470783;28;20519;-82
2021/08/05 14:27:47;;;;;;;12.43;11.30;;;;;;;;;;10457066;28;20037;-82
2021/08/05 14:32:48;;;;;;;9.48;8.60;;;;;;;;;;10457378;28;20120;-82
2021/08/05 14:37:49;;;;;;;12.00;10.85;;;;;;;;;;10477670;28;20035;-82
2021/08/05 14:43:08;;;;;;;10.20;9.20;;;;;;;;;;10480779;28;20040;-83
2021/08/05 14:48:11;;;;;;;10.90;9.95;;;;;;;;;;10422004;28;20100;-82
2021/08/05 14:53:40;;;;;;;8.88;7.95;;;;;;;;;;10454510;28;20040;-83
2021/08/05 15:44:24;;;;;;;6.57;6.00;;;;;;;;;;10530490;28;20112;-86
2021/08/05 15:50:07;;;;;;;6.78;6.18;;;;;;;;;;10400333;28;20030;-85
2021/08/05 15:55:14;;;;;;;7.43;6.72;;;;;;;;;;10418392;28;20138;-88
2021/08/05 16:23:02;;;;;;;7.72;6.40;;;;;;;;;;10401012;28;20116;-85
2021/08/05 16:28:04;;;;;;;6.60;5.90;;;;;;;;;;10492445;28;20066;-84
2021/08/05 20:09:40;;;;;;;7.60;5.57;;;;;;;;;;10393032;28;20062;-85
